createdAt,value
2022-10-03T00:01:39.682Z,11.70
2022-10-03T00:05:05.212Z,11.70
2022-10-03T00:09:04.554Z,11.80
2022-10-03T00:12:39.252Z,11.70
2022-10-03T00:15:54.608Z,11.80
2022-10-03T00:19:36.850Z,11.80
2022-10-03T00:23:01.864Z,11.70
2022-10-03T00:26:31.019Z,11.70
2022-10-03T00:30:02.219Z,11.70
2022-10-03T00:33:27.308Z,11.80
2022-10-03T00:36:55.590Z,11.70
2022-10-03T00:40:56.581Z,11.70
2022-10-03T00:44:28.710Z,11.70
2022-10-03T00:47:56.525Z,11.60
2022-10-03T00:51:17.781Z,11.60
2022-10-03T00:54:59.166Z,11.60
2022-10-03T00:58:33.866Z,11.70
2022-10-03T01:01:42.541Z,11.60
2022-10-03T01:05:08.044Z,11.60
2022-10-03T01:08:21.148Z,11.60
2022-10-03T01:11:48.088Z,11.60
2022-10-03T01:15:07.479Z,11.60
2022-10-03T01:18:33.082Z,11.60
2022-10-03T01:21:57.891Z,11.60
2022-10-03T01:25:19.013Z,11.60
2022-10-03T01:29:12.202Z,11.50
2022-10-03T01:32:22.012Z,11.50
2022-10-03T01:35:40.453Z,11.60
2022-10-03T01:39:15.283Z,11.60
2022-10-03T01:42:55.072Z,11.50
2022-10-03T01:46:05.136Z,11.60
2022-10-03T01:49:16.038Z,11.60
2022-10-03T01:52:45.842Z,11.60
2022-10-03T01:56:13.349Z,11.60
2022-10-03T01:59:28.995Z,11.70
2022-10-03T02:03:35.910Z,11.60
2022-10-03T02:06:52.760Z,11.70
2022-10-03T02:10:19.529Z,11.60
2022-10-03T02:13:43.603Z,11.60
2022-10-03T02:17:02.866Z,11.60
2022-10-03T02:20:19.424Z,11.60
2022-10-03T02:23:34.011Z,11.60
2022-10-03T02:27:05.284Z,11.60
2022-10-03T02:30:20.169Z,11.60
2022-10-03T02:34:06.975Z,11.60
2022-10-03T02:37:27.663Z,11.60
2022-10-03T02:41:41.583Z,11.60
2022-10-03T02:45:34.274Z,11.60
2022-10-03T02:49:15.322Z,11.60
2022-10-03T02:52:34.124Z,11.70
2022-10-03T02:56:06.822Z,11.60
2022-10-03T02:59:45.593Z,11.60
2022-10-03T03:03:14.119Z,11.70
2022-10-03T03:06:31.129Z,11.60
2022-10-03T03:10:19.229Z,11.60
2022-10-03T03:14:12.065Z,11.60
2022-10-03T03:17:49.891Z,11.50
2022-10-03T03:21:18.347Z,11.50
2022-10-03T03:24:41.791Z,11.50
2022-10-03T03:28:22.272Z,11.40
2022-10-03T03:31:51.174Z,11.40
2022-10-03T03:35:18.343Z,11.40
2022-10-03T03:39:10.142Z,11.40
2022-10-03T03:42:35.764Z,11.30
2022-10-03T03:45:58.527Z,11.30
2022-10-03T03:49:42.565Z,11.30
2022-10-03T03:53:23.792Z,11.30
2022-10-03T03:57:25.097Z,11.30
2022-10-03T04:00:48.901Z,11.30
2022-10-03T04:04:21.834Z,11.30
2022-10-03T04:08:02.400Z,11.20
2022-10-03T04:11:34.147Z,11.20
2022-10-03T04:14:59.612Z,11.10
2022-10-03T04:18:52.674Z,11.10
2022-10-03T04:22:12.190Z,11.10
2022-10-03T04:25:46.644Z,11.00
2022-10-03T04:29:20.827Z,11.00
2022-10-03T04:33:01.286Z,10.90
2022-10-03T04:36:50.083Z,10.80
2022-10-03T04:40:10.416Z,10.80
2022-10-03T04:43:41.471Z,10.70
2022-10-03T04:47:03.530Z,10.70
2022-10-03T04:50:19.831Z,10.70
2022-10-03T04:53:41.224Z,10.60
2022-10-03T04:57:10.054Z,10.60
2022-10-03T05:00:34.043Z,10.60
2022-10-03T05:03:53.389Z,10.60
2022-10-03T05:07:51.057Z,10.60
2022-10-03T05:11:18.632Z,10.60
2022-10-03T05:15:02.795Z,10.60
2022-10-03T05:18:35.410Z,10.60
2022-10-03T05:21:47.373Z,10.60
2022-10-03T05:25:12.415Z,10.60
2022-10-03T05:28:38.980Z,10.50
2022-10-03T05:32:21.761Z,10.60
2022-10-03T05:35:51.383Z,10.60
2022-10-03T05:39:27.520Z,10.60
2022-10-03T05:42:49.477Z,10.60
2022-10-03T05:46:34.636Z,10.60
2022-10-03T05:50:18.411Z,10.60
2022-10-03T05:53:34.116Z,10.70
2022-10-03T05:57:28.954Z,10.70
2022-10-03T06:01:07.270Z,10.80
2022-10-03T06:04:29.696Z,10.80
2022-10-03T06:07:51.708Z,10.80
2022-10-03T06:11:14.411Z,10.90
2022-10-03T06:14:39.965Z,10.90
2022-10-03T06:17:58.497Z,10.90
2022-10-03T06:21:16.457Z,11.00
2022-10-03T06:24:46.582Z,11.00
2022-10-03T06:28:42.755Z,11.10
2022-10-03T06:32:27.855Z,11.20
2022-10-03T06:36:13.318Z,11.20
2022-10-03T06:40:10.018Z,11.30
2022-10-03T06:43:44.796Z,11.50
2022-10-03T06:47:28.346Z,11.50
2022-10-03T06:50:38.655Z,11.60
2022-10-03T06:54:17.067Z,11.60
2022-10-03T06:57:29.314Z,11.80
2022-10-03T07:01:03.480Z,11.80
2022-10-03T07:04:36.862Z,12.00
2022-10-03T07:08:23.499Z,12.10
2022-10-03T07:11:46.880Z,12.20
2022-10-03T07:15:12.013Z,12.20
2022-10-03T07:18:54.808Z,12.30
2022-10-03T07:22:39.906Z,12.40
2022-10-03T07:26:31.852Z,12.40
2022-10-03T07:29:36.136Z,12.50
2022-10-03T07:33:20.977Z,12.70
2022-10-03T07:37:16.512Z,12.90
2022-10-03T07:40:49.754Z,13.40
2022-10-03T07:44:47.416Z,13.50
2022-10-03T07:48:52.292Z,13.60
2022-10-03T07:52:28.496Z,13.90
2022-10-03T07:56:10.339Z,14.00
2022-10-03T07:59:50.233Z,14.10
2022-10-03T08:03:25.399Z,14.30
2022-10-03T08:06:46.030Z,14.60
2022-10-03T08:10:42.476Z,14.60
2022-10-03T08:14:14.612Z,14.90
2022-10-03T08:17:35.927Z,15.10
2022-10-03T08:20:50.177Z,15.60
2022-10-03T08:24:09.811Z,15.80
2022-10-03T08:27:39.012Z,15.90
2022-10-03T08:31:13.283Z,15.70
2022-10-03T08:35:17.635Z,16.20
2022-10-03T08:38:55.019Z,16.40
2022-10-03T08:42:54.621Z,17.10
2022-10-03T08:46:46.872Z,17.50
2022-10-03T08:50:31.929Z,17.90
2022-10-03T08:54:17.008Z,18.30
2022-10-03T08:57:53.168Z,18.00
2022-10-03T09:01:34.329Z,18.30
2022-10-03T09:05:14.749Z,18.00
2022-10-03T09:08:51.134Z,18.70
2022-10-03T09:12:31.850Z,19.00
2022-10-03T09:16:20.930Z,19.50
2022-10-03T09:20:12.806Z,19.70
2022-10-03T09:23:38.940Z,19.00
2022-10-03T09:27:17.816Z,19.20
2022-10-03T09:31:04.200Z,17.40
2022-10-03T09:34:16.873Z,19.30
2022-10-03T09:37:41.591Z,20.90
2022-10-03T09:41:19.339Z,21.10
2022-10-03T09:44:53.301Z,21.80
2022-10-03T09:48:25.069Z,21.90
2022-10-03T09:51:37.938Z,22.60
2022-10-03T09:54:47.793Z,25.20
2022-10-03T09:58:37.548Z,26.50
2022-10-03T10:02:10.408Z,26.90
2022-10-03T10:05:51.712Z,24.80
2022-10-03T10:09:39.541Z,27.30
2022-10-03T10:13:15.584Z,24.00
2022-10-03T10:16:48.699Z,27.90
2022-10-03T10:20:30.142Z,29.70
2022-10-03T10:23:51.815Z,30.70
2022-10-03T10:27:39.854Z,25.40
2022-10-03T10:31:08.810Z,24.60
2022-10-03T10:34:49.188Z,23.50
2022-10-03T10:38:15.477Z,22.80
2022-10-03T10:41:38.420Z,24.70
2022-10-03T10:45:15.803Z,24.60
2022-10-03T10:48:19.291Z,23.10
2022-10-03T10:52:23.040Z,26.70
2022-10-03T10:55:51.640Z,26.90
2022-10-03T10:59:36.146Z,26.90
2022-10-03T11:03:27.485Z,24.40
2022-10-03T11:07:22.481Z,26.00
2022-10-03T11:10:53.549Z,23.60
2022-10-03T11:14:41.838Z,25.80
2022-10-03T11:18:16.576Z,26.20
2022-10-03T11:21:54.620Z,27.20
2022-10-03T11:25:53.952Z,23.40
2022-10-03T11:29:31.558Z,24.40
2022-10-03T11:33:01.874Z,26.10
2022-10-03T11:36:18.126Z,26.30
2022-10-03T11:39:49.286Z,26.90
2022-10-03T11:43:01.241Z,26.50
2022-10-03T11:46:45.023Z,27.00
2022-10-03T11:50:23.753Z,27.10
2022-10-03T11:53:33.334Z,27.20
2022-10-03T11:57:14.058Z,23.90
2022-10-03T12:00:23.420Z,25.50
2022-10-03T12:03:38.644Z,26.30
2022-10-03T12:07:17.390Z,26.80
2022-10-03T12:10:40.845Z,26.70
2022-10-03T12:14:15.532Z,25.20
2022-10-03T12:17:34.498Z,26.40
2022-10-03T12:21:03.316Z,26.80
2022-10-03T12:24:32.452Z,26.50
2022-10-03T12:28:01.085Z,26.00
2022-10-03T12:31:29.986Z,25.80
2022-10-03T12:34:50.193Z,26.60
2022-10-03T12:38:51.020Z,26.60
2022-10-03T12:42:23.089Z,26.40
2022-10-03T12:45:32.189Z,25.90
2022-10-03T12:48:47.977Z,26.50
2022-10-03T12:52:02.743Z,26.50
2022-10-03T12:55:38.388Z,25.30
2022-10-03T12:59:16.243Z,25.30
2022-10-03T13:02:20.286Z,25.00
2022-10-03T13:05:58.557Z,22.80
2022-10-03T13:09:58.918Z,24.30
2022-10-03T13:13:21.131Z,25.40
2022-10-03T13:17:01.234Z,26.30
2022-10-03T13:20:15.438Z,27.00
2022-10-03T13:23:44.257Z,27.90
2022-10-03T13:27:17.259Z,29.30
2022-10-03T13:30:26.188Z,29.40
2022-10-03T13:33:32.966Z,30.30
2022-10-03T13:36:46.364Z,30.20
2022-10-03T13:39:57.498Z,29.30
2022-10-03T13:43:09.968Z,27.40
2022-10-03T13:46:27.161Z,29.60
2022-10-03T13:49:37.269Z,26.10
2022-10-03T13:53:11.461Z,25.00
2022-10-03T13:56:38.322Z,23.30
2022-10-03T14:00:13.012Z,23.50
2022-10-03T14:03:28.615Z,23.70
2022-10-03T14:07:14.881Z,23.80
2022-10-03T14:11:02.203Z,23.30
2022-10-03T14:14:24.279Z,22.90
2022-10-03T14:17:46.530Z,23.10
2022-10-03T14:21:40.406Z,23.60
2022-10-03T14:25:17.152Z,22.70
2022-10-03T14:28:45.911Z,22.20
2022-10-03T14:32:46.930Z,23.40
2022-10-03T14:36:34.179Z,26.40
2022-10-03T14:40:05.746Z,29.70
2022-10-03T14:43:25.662Z,30.90
2022-10-03T14:46:34.259Z,31.60
2022-10-03T14:49:54.853Z,30.80
2022-10-03T14:53:07.632Z,30.70
2022-10-03T14:56:12.645Z,30.50
2022-10-03T14:59:29.120Z,31.10
2022-10-03T15:02:47.251Z,30.60
2022-10-03T15:06:02.566Z,31.50
2022-10-03T15:09:22.642Z,31.60
2022-10-03T15:12:28.739Z,32.30
2022-10-03T15:15:38.673Z,31.00
2022-10-03T15:18:56.548Z,29.70
2022-10-03T15:22:20.025Z,30.30
2022-10-03T15:25:37.848Z,29.80
2022-10-03T15:28:53.727Z,30.40
2022-10-03T15:31:58.227Z,29.50
2022-10-03T15:35:02.560Z,30.10
2022-10-03T15:38:18.420Z,27.50
2022-10-03T15:41:35.266Z,28.40
2022-10-03T15:45:05.684Z,29.00
2022-10-03T15:48:16.633Z,28.10
2022-10-03T15:51:24.138Z,28.10
2022-10-03T15:54:32.671Z,28.00
2022-10-03T15:57:40.370Z,28.30
2022-10-03T16:00:43.828Z,28.30
2022-10-03T16:04:03.437Z,27.60
2022-10-03T16:07:26.996Z,27.20
2022-10-03T16:10:35.921Z,26.90
2022-10-03T16:13:53.509Z,25.00
2022-10-03T16:17:29.139Z,21.20
2022-10-03T16:20:47.614Z,19.30
2022-10-03T16:23:55.782Z,17.70
2022-10-03T16:27:13.226Z,17.00
2022-10-03T16:30:21.846Z,16.70
2022-10-03T16:33:33.879Z,16.30
2022-10-03T16:36:49.283Z,15.80
2022-10-03T16:40:02.810Z,15.20
2022-10-03T16:43:11.616Z,14.60
2022-10-03T16:46:19.800Z,14.10
2022-10-03T16:49:44.988Z,13.70
2022-10-03T16:52:52.836Z,13.50
2022-10-03T16:56:03.475Z,13.20
2022-10-03T16:59:19.754Z,13.00
2022-10-03T17:02:27.429Z,12.80
2022-10-03T17:05:38.494Z,12.70
2022-10-03T17:08:51.551Z,12.60
2022-10-03T17:11:58.341Z,12.60
2022-10-03T17:15:08.879Z,12.50
2022-10-03T17:18:25.718Z,12.30
2022-10-03T17:21:31.431Z,12.20
2022-10-03T17:25:18.294Z,12.10
2022-10-03T17:28:49.139Z,11.90
2022-10-03T17:32:08.603Z,11.80
2022-10-03T17:35:28.633Z,11.60
2022-10-03T17:39:05.065Z,11.40
2022-10-03T17:43:01.339Z,11.40
2022-10-03T17:46:18.584Z,11.20
2022-10-03T17:49:35.631Z,11.30
2022-10-03T17:52:44.277Z,11.40
2022-10-03T17:55:54.728Z,11.30
2022-10-03T17:59:15.091Z,11.20
2022-10-03T18:03:21.675Z,11.00
2022-10-03T18:06:54.803Z,10.70
2022-10-03T18:09:56.746Z,10.50
2022-10-03T18:13:05.828Z,10.60
2022-10-03T18:16:34.731Z,10.60
2022-10-03T18:19:58.091Z,10.40
2022-10-03T18:23:10.700Z,10.40
2022-10-03T18:26:34.487Z,10.40
2022-10-03T18:29:42.787Z,10.50
2022-10-03T18:32:45.950Z,10.60
2022-10-03T18:35:49.794Z,10.80
2022-10-03T18:38:59.101Z,10.90
2022-10-03T18:42:02.880Z,10.90
2022-10-03T18:45:04.284Z,11.10
2022-10-03T18:48:34.290Z,11.00
2022-10-03T18:51:47.300Z,10.90
2022-10-03T18:55:15.691Z,11.00
2022-10-03T18:58:32.322Z,11.00
2022-10-03T19:01:57.615Z,11.00
2022-10-03T19:05:16.168Z,11.00
2022-10-03T19:08:51.553Z,10.90
2022-10-03T19:12:22.654Z,10.80
2022-10-03T19:15:55.597Z,10.80
2022-10-03T19:19:25.139Z,10.70
2022-10-03T19:22:32.829Z,10.70
2022-10-03T19:25:38.944Z,10.60
2022-10-03T19:28:50.020Z,10.60
2022-10-03T19:31:50.674Z,10.60
2022-10-03T19:34:53.983Z,10.60
2022-10-03T19:38:16.727Z,10.70
2022-10-03T19:41:29.663Z,10.60
2022-10-03T19:44:32.020Z,10.50
2022-10-03T19:47:40.746Z,10.50
2022-10-03T19:50:41.829Z,10.40
2022-10-03T19:53:45.821Z,10.30
2022-10-03T19:56:47.131Z,10.20
2022-10-03T19:59:57.977Z,10.20
2022-10-03T20:03:16.659Z,10.10
2022-10-03T20:06:35.284Z,10.10
2022-10-03T20:09:39.974Z,10.00
2022-10-03T20:12:48.858Z,10.00
2022-10-03T20:15:52.416Z,9.90
2022-10-03T20:19:04.436Z,9.90
2022-10-03T20:22:06.574Z,9.80
2022-10-03T20:25:31.638Z,9.80
2022-10-03T20:29:25.530Z,9.80
2022-10-03T20:32:26.983Z,9.80
2022-10-03T20:35:50.493Z,9.70
2022-10-03T20:39:06.362Z,9.70
2022-10-03T20:42:19.658Z,9.60
2022-10-03T20:45:27.454Z,9.70
2022-10-03T20:48:39.616Z,9.70
2022-10-03T20:51:57.309Z,9.80
2022-10-03T20:55:03.259Z,9.70
2022-10-03T20:58:33.660Z,9.80
2022-10-03T21:01:38.161Z,9.70
2022-10-03T21:04:52.754Z,9.70
2022-10-03T21:08:00.886Z,9.50
2022-10-03T21:11:11.004Z,9.50
2022-10-03T21:14:25.851Z,9.40
2022-10-03T21:17:29.020Z,9.30
2022-10-03T21:20:40.784Z,9.30
2022-10-03T21:24:32.040Z,9.30
2022-10-03T21:27:34.737Z,9.30
2022-10-03T21:31:00.835Z,9.30
2022-10-03T21:34:23.558Z,9.30
2022-10-03T21:37:44.735Z,9.10
2022-10-03T21:41:22.039Z,8.80
2022-10-03T21:44:54.346Z,8.70
2022-10-03T21:48:10.514Z,8.70
2022-10-03T21:51:45.134Z,8.60
2022-10-03T21:55:09.149Z,8.60
2022-10-03T21:58:50.948Z,8.60
2022-10-03T22:02:19.271Z,8.50
2022-10-03T22:05:47.866Z,8.60
2022-10-03T22:08:50.069Z,8.40
2022-10-03T22:11:59.413Z,8.40
2022-10-03T22:15:19.170Z,8.40
2022-10-03T22:18:21.813Z,8.50
2022-10-03T22:21:35.694Z,8.40
2022-10-03T22:25:09.485Z,8.20
2022-10-03T22:28:28.436Z,8.10
2022-10-03T22:31:44.393Z,8.10
2022-10-03T22:35:17.617Z,8.10
2022-10-03T22:38:24.626Z,8.10
2022-10-03T22:41:30.950Z,8.10
2022-10-03T22:44:38.178Z,8.20
2022-10-03T22:47:43.733Z,8.20
2022-10-03T22:50:45.750Z,8.30
2022-10-03T22:53:57.407Z,8.20
2022-10-03T22:57:11.803Z,8.20
2022-10-03T23:00:20.219Z,8.10
2022-10-03T23:03:32.675Z,8.20
2022-10-03T23:06:57.988Z,8.20
2022-10-03T23:10:31.818Z,8.20
2022-10-03T23:13:42.593Z,8.10
2022-10-03T23:16:56.353Z,8.00
2022-10-03T23:20:41.506Z,7.90
2022-10-03T23:23:54.783Z,7.90
2022-10-03T23:27:13.566Z,7.90
2022-10-03T23:30:18.372Z,7.80
2022-10-03T23:33:39.388Z,7.70
2022-10-03T23:37:01.873Z,7.70
2022-10-03T23:40:02.563Z,7.60
2022-10-03T23:43:27.157Z,7.60
2022-10-03T23:46:31.274Z,7.60
2022-10-03T23:49:36.323Z,7.50
2022-10-03T23:52:51.398Z,7.60
2022-10-03T23:55:52.251Z,7.60
2022-10-03T23:59:05.330Z,7.50
